RFF123 UHBB-UHBB
Flight info
| Callsign | RFF123 |
|---|---|
| Flight time | 0h 7m |
| Altitude | 10000 |
| Route | UHBB |
| Aircraft | SU27/L-SDE2E3FGHIRWXY/LB1 |
Departure
| Time | 2026-05-08 12:28 |
|---|---|
| Airport | Ignatyevo Airport (UHBB) |
Arrival
| Time | 2026-05-08 12:36 |
|---|---|
| Airport | Ignatyevo Airport (UHBB) |
| Time | Latitude | Longitude | Altitude | Speed | Heading |
|---|---|---|---|---|---|
| 2026-05-08 12:17 | 50.42251 | 127.40971 | 655 ft | 0 kts | 257° |
| 2026-05-08 12:23 | 50.42246 | 127.40958 | 658 ft | 7 kts | 218° |
| 2026-05-08 12:24 | 50.42139 | 127.41017 | 656 ft | 26 kts | 165° |
| 2026-05-08 12:24 | 50.41927 | 127.41068 | 657 ft | 21 kts | 169° |
| 2026-05-08 12:24 | 50.41830 | 127.41097 | 656 ft | 0 kts | 168° |
| 2026-05-08 12:25 | 50.41827 | 127.41101 | 658 ft | 4 kts | 129° |
| 2026-05-08 12:26 | 50.41824 | 127.41173 | 656 ft | 13 kts | 94° |
| 2026-05-08 12:26 | 50.41789 | 127.41254 | 656 ft | 4 kts | 9° |
| 2026-05-08 12:26 | 50.41827 | 127.41318 | 656 ft | 14 kts | 84° |
| 2026-05-08 12:26 | 50.41877 | 127.41519 | 654 ft | 12 kts | 45° |
| 2026-05-08 12:27 | 50.41880 | 127.41523 | 654 ft | 0 kts | 45° |
| 2026-05-08 12:27 | 50.41890 | 127.41525 | 654 ft | 14 kts | 344° |
| 2026-05-08 12:27 | 50.41961 | 127.41455 | 655 ft | 0 kts | 348° |
| 2026-05-08 12:28 | 50.42621 | 127.41230 | 660 ft | 267 kts | 348° |
| 2026-05-08 12:28 | 50.45498 | 127.40311 | 2720 ft | 490 kts | 348° |
| 2026-05-08 12:28 | 50.48914 | 127.39178 | 6618 ft | 456 kts | 347° |
| 2026-05-08 12:29 | 50.52185 | 127.38165 | 9622 ft | 484 kts | 343° |
| 2026-05-08 12:29 | 50.54553 | 127.34400 | 3640 ft | 636 kts | 291° |
| 2026-05-08 12:29 | 50.55036 | 127.28206 | 5180 ft | 517 kts | 269° |
| 2026-05-08 12:29 | 50.54395 | 127.22977 | 6112 ft | 472 kts | 250° |
| 2026-05-08 12:30 | 50.54190 | 127.22219 | 6054 ft | 469 kts | 249° |
| 2026-05-08 12:30 | 50.51827 | 127.19945 | 6137 ft | 457 kts | 185° |
| 2026-05-08 12:31 | 50.48974 | 127.21716 | 5335 ft | 460 kts | 140° |
| 2026-05-08 12:31 | 50.46489 | 127.24881 | 5104 ft | 455 kts | 140° |
| 2026-05-08 12:31 | 50.44084 | 127.28048 | 5050 ft | 450 kts | 139° |
| 2026-05-08 12:31 | 50.41720 | 127.31271 | 4668 ft | 452 kts | 137° |
| 2026-05-08 12:32 | 50.39379 | 127.34571 | 4421 ft | 451 kts | 136° |
| 2026-05-08 12:32 | 50.37091 | 127.37893 | 4424 ft | 445 kts | 136° |
| 2026-05-08 12:32 | 50.36398 | 127.38914 | 4448 ft | 443 kts | 135° |
| 2026-05-08 12:33 | 50.36271 | 127.39102 | 4456 ft | 443 kts | 135° |
| 2026-05-08 12:33 | 50.34053 | 127.42422 | 4528 ft | 438 kts | 135° |
| 2026-05-08 12:33 | 50.31875 | 127.45751 | 3873 ft | 439 kts | 134° |
| 2026-05-08 12:33 | 50.29621 | 127.49280 | 1849 ft | 463 kts | 133° |
| 2026-05-08 12:34 | 50.27553 | 127.52495 | 2083 ft | 407 kts | 134° |
| 2026-05-08 12:34 | 50.25670 | 127.55388 | 2087 ft | 248 kts | 136° |
| 2026-05-08 12:34 | 50.25444 | 127.55539 | 3964 ft | 73 kts | 302° |
| 2026-05-08 12:34 | 50.25084 | 127.57223 | 1810 ft | 396 kts | 104° |
| 2026-05-08 12:35 | 50.25993 | 127.60794 | 1606 ft | 437 kts | 14° |
| 2026-05-08 12:35 | 50.28632 | 127.59271 | 1651 ft | 436 kts | 297° |
| 2026-05-08 12:35 | 50.28900 | 127.54506 | 572 ft | 456 kts | 275° |
| 2026-05-08 12:35 | 50.29053 | 127.49725 | 969 ft | 437 kts | 243° |
| 2026-05-08 12:36 | 50.26395 | 127.48623 | 1088 ft | 419 kts | 146° |
| 2026-05-08 12:36 | 50.25780 | 127.51036 | 593 ft | 40 kts | 17° |
| 2026-05-08 12:36 | 50.25869 | 127.51146 | 426 ft | 6 kts | 46° |
| 2026-05-08 12:36 | 50.25868 | 127.51146 | 426 ft | 0 kts | 41° |